Time;durP1;ratioP1;P1;durP2;ratioP2;P2;SDS_P1;SDS_P2;PMS_P1;PMS_P2;Temp;Humidity;BMP_temperature;BMP_pressure;BME280_temperature;BME280_humidity;BME280_pressure;Samples;Min_cycle;Max_cycle;Signal;HPM_P1;HPM_P2
2022/05/06 00:01:34;;;;;;;;;;;;;;;24.87;15.16;100735.56;5096051;28;20286;-75
2022/05/06 00:04:00;;;;;;;;;;;;;;;24.87;15.10;100736.41;5096053;28;19920;-74
2022/05/06 00:06:25;;;;;;;;;;;;;;;24.87;15.29;100743.78;5096370;28;20334;-75
2022/05/06 00:08:50;;;;;;;;;;;;;;;24.86;15.33;100742.97;5095751;28;20306;-74
2022/05/06 00:11:15;;;;;;;;;;;;;;;24.86;15.03;100737.50;5096221;28;19999;-74
2022/05/06 00:13:41;;;;;;;;;;;;;;;24.85;15.38;100738.59;5095966;28;20304;-73
2022/05/06 00:16:06;;;;;;;;;;;;;;;24.86;15.18;100740.22;5095904;28;19923;-76
2022/05/06 00:18:31;;;;;;;;;;;;;;;24.84;15.38;100736.97;5095418;28;20358;-74
2022/05/06 00:20:57;;;;;;;;;;;;;;;24.84;15.29;100741.63;5095887;28;19916;-74
2022/05/06 00:23:22;;;;;;;;;;;;;;;24.83;15.47;100740.78;5095746;28;19923;-76
2022/05/06 00:25:47;;;;;;;;;;;;;;;24.82;15.38;100741.88;5078728;28;19920;-74
2022/05/06 00:28:13;;;;;;;;;;;;;;;24.83;15.16;100734.50;5075092;28;20051;-75
2022/05/06 00:30:38;;;;;;;;;;;;;;;24.84;15.19;100744.34;5076086;28;19978;-75
2022/05/06 00:33:05;;;;;;;;;;;;;;;24.82;15.14;100739.16;5075058;28;19927;-75
2022/05/06 00:35:30;;;;;;;;;;;;;;;24.82;15.43;100738.31;5075015;28;19921;-74
2022/05/06 00:37:55;;;;;;;;;;;;;;;24.83;15.29;100742.69;5074630;28;19999;-76
2022/05/06 00:40:21;;;;;;;;;;;;;;;24.82;15.14;100739.16;5081845;28;20362;-74
2022/05/06 00:42:50;;;;;;;;;;;;;;;24.82;15.37;100741.03;5095124;28;19923;-74
2022/05/06 00:45:15;;;;;;;;;;;;;;;24.81;15.34;100739.41;5095799;28;19961;-76
2022/05/06 00:47:40;;;;;;;;;;;;;;;24.80;15.25;100730.41;5095384;28;19924;-74
2022/05/06 00:50:06;;;;;;;;;;;;;;;24.81;15.47;100739.41;5095286;28;19923;-75
2022/05/06 00:52:31;;;;;;;;;;;;;;;24.80;15.21;100727.69;5077250;28;19923;-76
2022/05/06 00:54:56;;;;;;;;;;;;;;;24.79;15.52;100736.97;5095268;28;19945;-74
2022/05/06 00:57:22;;;;;;;;;;;;;;;24.79;15.43;100739.69;5094803;28;20275;-75
2022/05/06 01:02:32;;;;;;;;;;;;;;;24.79;15.26;100731.50;5095149;28;20393;-74
2022/05/06 01:04:57;;;;;;;;;;;;;;;24.79;15.49;100733.41;5095022;28;19916;-74
2022/05/06 01:07:22;;;;;;;;;;;;;;;24.78;15.50;100731.75;5076604;28;20259;-75
2022/05/06 01:09:51;;;;;;;;;;;;;;;24.77;15.35;100730.94;5094956;28;19921;-74
2022/05/06 01:12:16;;;;;;;;;;;;;;;24.77;15.53;100730.94;5094768;28;19916;-74
2022/05/06 01:14:41;;;;;;;;;;;;;;;24.77;15.26;100730.94;5094418;28;19922;-75
2022/05/06 01:17:09;;;;;;;;;;;;;;;24.76;15.45;100723.84;5094403;28;19991;-74
2022/05/06 01:19:35;;;;;;;;;;;;;;;24.76;15.52;100732.03;5094311;28;19916;-74
2022/05/06 01:22:00;;;;;;;;;;;;;;;24.76;15.34;100734.78;5094268;28;20397;-76
2022/05/06 01:24:25;;;;;;;;;;;;;;;24.74;15.22;100726.84;5094127;28;19920;-73
2022/05/06 01:27:06;;;;;;;;;;;;;;;24.76;15.35;100728.50;5094833;28;19916;-75
2022/05/06 01:29:32;;;;;;;;;;;;;;;24.75;15.64;100724.94;5094591;28;19916;-74
2022/05/06 01:31:57;;;;;;;;;;;;;;;24.74;15.64;100726.03;5094373;28;20286;-76
2022/05/06 01:34:23;;;;;;;;;;;;;;;24.73;15.54;100722.50;5094628;28;20334;-73
2022/05/06 01:36:49;;;;;;;;;;;;;;;24.74;15.54;100726.03;5094490;28;19923;-75
2022/05/06 01:39:15;;;;;;;;;;;;;;;24.74;15.64;100729.56;5094399;28;19916;-74
2022/05/06 01:41:40;;;;;;;;;;;;;;;24.73;15.47;100736.16;5059446;28;20389;-74
2022/05/06 01:44:07;;;;;;;;;;;;;;;24.74;15.64;100723.28;5073742;28;20354;-75
2022/05/06 01:46:33;;;;;;;;;;;;;;;24.73;15.65;100727.13;5074073;28;19924;-73
2022/05/06 01:48:58;;;;;;;;;;;;;;;24.73;15.54;100724.38;5073836;28;19916;-74
2022/05/06 01:51:24;;;;;;;;;;;;;;;24.73;15.55;100724.38;5074028;28;20378;-74
2022/05/06 01:53:49;;;;;;;;;;;;;;;24.73;15.64;100724.38;5073918;28;19916;-74
2022/05/06 01:56:18;;;;;;;;;;;;;;;24.72;15.75;100722.75;5074028;28;20326;-74
2022/05/06 01:58:43;;;;;;;;;;;;;;;24.72;15.68;100722.75;5073951;28;19917;-74
2022/05/06 02:01:08;;;;;;;;;;;;;;;24.71;15.44;100719.19;5073630;28;19924;-74
2022/05/06 02:06:17;;;;;;;;;;;;;;;24.71;15.70;100715.63;5073807;28;19966;-75
2022/05/06 02:08:42;;;;;;;;;;;;;;;24.71;15.79;100710.97;5074461;28;19928;-73
2022/05/06 02:11:08;;;;;;;;;;;;;;;24.70;15.68;100705.81;5073914;28;20010;-75
2022/05/06 02:13:34;;;;;;;;;;;;;;;24.70;15.66;100706.63;5073639;28;20347;-75
2022/05/06 02:15:59;;;;;;;;;;;;;;;24.70;15.87;100708.56;5073883;28;20285;-74
2022/05/06 02:18:26;;;;;;;;;;;;;;;24.69;15.94;100707.72;5073654;28;19916;-74
2022/05/06 02:20:52;;;;;;;;;;;;;;;24.70;15.65;100719.47;5073551;28;20236;-74
2022/05/06 02:23:17;;;;;;;;;;;;;;;24.69;15.93;100717.84;5055673;28;19923;-74
2022/05/06 02:25:42;;;;;;;;;;;;;;;24.68;15.73;100722.50;5089265;28;19927;-75
2022/05/06 02:28:08;;;;;;;;;;;;;;;24.69;16.02;100723.28;5093786;28;19923;-74
2022/05/06 02:33:23;;;;;;;;;;;;;;;24.68;15.89;100718.91;5078526;28;20357;-74
2022/05/06 02:35:49;;;;;;;;;;;;;;;24.67;15.88;100720.03;5093828;28;19916;-77
2022/05/06 02:38:14;;;;;;;;;;;;;;;24.67;15.81;100720.03;5093594;28;19939;-73
2022/05/06 02:40:39;;;;;;;;;;;;;;;24.64;15.99;100715.09;5093800;28;20008;-75
2022/05/06 02:43:05;;;;;;;;;;;;;;;24.66;16.11;100718.38;5093457;28;20342;-76
2022/05/06 02:45:30;;;;;;;;;;;;;;;24.67;16.08;100714.56;5093367;28;19965;-74
2022/05/06 02:47:57;;;;;;;;;;;;;;;24.66;16.08;100715.63;5075736;28;19916;-74
2022/05/06 02:50:22;;;;;;;;;;;;;;;24.65;15.94;100719.50;5093312;28;20356;-74
2022/05/06 02:52:47;;;;;;;;;;;;;;;24.64;15.87;100715.91;5093489;28;20015;-75
2022/05/06 02:55:13;;;;;;;;;;;;;;;24.66;15.91;100712.91;5094384;28;19977;-76
2022/05/06 02:57:38;;;;;;;;;;;;;;;24.66;16.17;100713.72;5093612;28;20347;-73
2022/05/06 03:00:04;;;;;;;;;;;;;;;24.66;15.78;100718.38;5094181;28;19924;-75
2022/05/06 03:02:29;;;;;;;;;;;;;;;24.68;16.19;100724.38;5097282;28;19923;-73
2022/05/06 03:04:55;;;;;;;;;;;;;;;24.70;16.21;100730.41;5097055;28;19951;-75
2022/05/06 03:07:20;;;;;;;;;;;;;;;24.71;16.12;100729.31;5097282;28;19928;-76
2022/05/06 03:09:45;;;;;;;;;;;;;;;24.75;15.97;100727.69;5096829;28;20233;-74
2022/05/06 03:12:11;;;;;;;;;;;;;;;24.77;15.91;100736.41;5097165;28;19997;-75
2022/05/06 03:14:36;;;;;;;;;;;;;;;24.80;16.16;100735.03;5096913;28;20385;-76
2022/05/06 03:17:01;;;;;;;;;;;;;;;24.84;16.03;100734.22;5097337;28;19923;-73
2022/05/06 03:19:26;;;;;;;;;;;;;;;24.87;16.08;100736.41;5096834;28;20358;-74
2022/05/06 03:21:55;;;;;;;;;;;;;;;24.91;16.15;100728.47;5096936;28;19920;-74
2022/05/06 03:24:20;;;;;;;;;;;;;;;24.94;15.82;100730.66;5078294;28;20409;-74
2022/05/06 03:26:45;;;;;;;;;;;;;;;24.98;16.12;100728.19;5096700;28;19916;-76
2022/05/06 03:29:11;;;;;;;;;;;;;;;25.01;15.91;100728.47;5096613;28;19927;-73
2022/05/06 03:31:36;;;;;;;;;;;;;;;25.05;16.07;100726.00;5096710;28;20003;-75
2022/05/06 03:34:02;;;;;;;;;;;;;;;25.06;16.14;100738.56;5078310;28;19966;-76
2022/05/06 03:36:27;;;;;;;;;;;;;;;25.07;16.06;100745.66;5078598;28;19916;-74
2022/05/06 03:38:52;;;;;;;;;;;;;;;25.12;16.08;100742.94;5096784;28;19916;-74
2022/05/06 03:41:18;;;;;;;;;;;;;;;25.11;16.24;100749.47;5106911;28;20015;-75
2022/05/06 03:43:43;;;;;;;;;;;;;;;25.14;16.04;100748.94;5116719;28;19916;-73
2022/05/06 03:46:08;;;;;;;;;;;;;;;25.20;16.27;100744.25;5116645;28;19916;-74
2022/05/06 03:48:34;;;;;;;;;;;;;;;25.21;16.46;100756.84;5116990;28;20057;-74
2022/05/06 03:51:20;;;;;;;;;;;;;;;25.27;16.20;100747.59;5116957;28;20281;-74
2022/05/06 03:53:46;;;;;;;;;;;;;;;25.37;16.14;100749.44;5116523;28;19961;-74
2022/05/06 03:56:11;;;;;;;;;;;;;;;25.43;16.18;100749.16;5116781;28;20006;-75
2022/05/06 03:58:37;;;;;;;;;;;;;;;25.51;16.18;100745.06;5116447;28;19916;-74
2022/05/06 04:01:07;;;;;;;;;;;;;;;25.59;16.28;100746.38;5116517;28;19916;-74
2022/05/06 04:03:32;;;;;;;;;;;;;;;25.64;16.26;100749.91;5116272;28;19916;-74
2022/05/06 04:05:57;;;;;;;;;;;;;;;25.71;16.11;100746.88;5116200;28;19922;-73
2022/05/06 04:08:23;;;;;;;;;;;;;;;25.75;16.32;100750.69;5116976;28;19942;-76
2022/05/06 04:10:48;;;;;;;;;;;;;;;25.83;16.11;100754.75;5116132;28;19951;-72
2022/05/06 04:13:13;;;;;;;;;;;;;;;25.84;16.01;100759.16;5115143;28;19919;-74
2022/05/06 04:15:39;;;;;;;;;;;;;;;25.89;16.32;100748.16;5116286;28;19965;-75
2022/05/06 04:18:04;;;;;;;;;;;;;;;25.92;16.17;100747.59;5116299;28;20006;-73
2022/05/06 04:23:29;;;;;;;;;;;;;;;26.01;15.91;100754.16;5116637;28;20268;-74
2022/05/06 04:25:55;;;;;;;;;;;;;;;26.06;16.26;100747.84;5115701;28;20305;-74
2022/05/06 04:28:20;;;;;;;;;;;;;;;26.02;16.04;100747.56;5116119;28;19969;-75
2022/05/06 04:30:46;;;;;;;;;;;;;;;26.05;16.10;100747.00;5115857;28;19916;-75
2022/05/06 04:33:11;;;;;;;;;;;;;;;26.09;16.26;100749.19;5115556;28;19923;-73
2022/05/06 04:35:36;;;;;;;;;;;;;;;26.09;16.05;100749.19;5116355;28;19915;-74
2022/05/06 04:38:01;;;;;;;;;;;;;;;26.08;15.98;100744.78;5115959;28;20312;-75
2022/05/06 04:40:28;;;;;;;;;;;;;;;26.10;16.17;100750.84;5113014;28;20124;-74
2022/05/06 04:42:54;;;;;;;;;;;;;;;26.11;16.05;100752.44;5095234;28;20378;-74
2022/05/06 04:45:19;;;;;;;;;;;;;;;26.12;16.15;100756.84;5095472;28;20370;-74
2022/05/06 04:47:44;;;;;;;;;;;;;;;26.13;16.04;100748.34;5095213;28;19939;-76
2022/05/06 04:50:10;;;;;;;;;;;;;;;26.19;16.29;100754.59;5095740;28;19916;-73
2022/05/06 04:52:35;;;;;;;;;;;;;;;26.17;16.08;100745.84;5095017;28;20270;-74
2022/05/06 04:55:00;;;;;;;;;;;;;;;26.24;16.35;100740.88;5095168;28;20007;-74
2022/05/06 04:57:26;;;;;;;;;;;;;;;26.25;16.21;100756.22;5095255;28;19961;-75
2022/05/06 04:59:51;;;;;;;;;;;;;;;26.30;16.25;100760.81;5095163;28;19916;-73
2022/05/06 05:02:16;;;;;;;;;;;;;;;26.31;16.24;100752.31;5094762;28;20316;-74
2022/05/06 05:04:42;;;;;;;;;;;;;;;26.37;16.29;100755.84;5095011;28;19916;-74
2022/05/06 05:07:07;;;;;;;;;;;;;;;26.40;16.51;100761.56;5094999;28;20424;-76
2022/05/06 05:09:33;;;;;;;;;;;;;;;26.41;16.36;100765.94;5095000;28;20259;-74
2022/05/06 05:11:58;;;;;;;;;;;;;;;26.46;16.42;100764.28;5094796;28;19920;-73
2022/05/06 05:14:23;;;;;;;;;;;;;;;26.49;16.54;100766.44;5094923;28;20290;-74
2022/05/06 05:16:50;;;;;;;;;;;;;;;26.52;16.63;100766.69;5094822;28;20377;-75
2022/05/06 05:19:15;;;;;;;;;;;;;;;26.55;16.52;100762.56;5076921;28;20434;-74
2022/05/06 05:21:41;;;;;;;;;;;;;;;26.58;16.47;100768.31;5094370;28;19940;-73
2022/05/06 05:24:07;;;;;;;;;;;;;;;26.64;16.40;100771.03;5094872;28;20303;-75
2022/05/06 05:26:32;;;;;;;;;;;;;;;26.62;16.75;100757.59;5094835;28;19920;-76
2022/05/06 05:28:57;;;;;;;;;;;;;;;26.66;16.79;100764.16;5094539;28;19923;-77
2022/05/06 05:31:22;;;;;;;;;;;;;;;26.73;16.45;100763.81;5094457;28;19988;-74
2022/05/06 05:33:49;;;;;;;;;;;;;;;26.70;16.96;100765.22;5094433;28;20266;-72
2022/05/06 05:36:14;;;;;;;;;;;;;;;26.75;16.63;100765.19;5093919;28;20030;-75
2022/05/06 05:38:39;;;;;;;;;;;;;;;26.85;16.52;100769.75;5094457;28;19965;-75
2022/05/06 05:41:06;;;;;;;;;;;;;;;26.88;16.55;100765.63;5099236;28;19937;-74
2022/05/06 05:48:59;;;;;;;;;;;;;;;26.87;16.56;100764.81;5114112;28;20285;-75
2022/05/06 05:51:24;;;;;;;;;;;;;;;26.93;16.56;100766.38;5114755;28;19916;-75
2022/05/06 05:53:50;;;;;;;;;;;;;;;26.94;16.78;100764.44;5114202;28;19916;-73
2022/05/06 05:56:15;;;;;;;;;;;;;;;26.97;16.71;100763.88;5114085;28;19958;-75
2022/05/06 05:58:40;;;;;;;;;;;;;;;26.99;16.59;100764.41;5113972;28;19947;-75
2022/05/06 06:01:06;;;;;;;;;;;;;;;27.01;16.65;100764.13;5114172;28;19916;-77
2022/05/06 06:03:31;;;;;;;;;;;;;;;26.91;17.08;100762.31;5113988;28;19999;-75
2022/05/06 06:05:56;;;;;;;;;;;;;;;26.98;16.82;100771.00;5113884;28;19941;-74
2022/05/06 06:08:23;;;;;;;;;;;;;;;26.95;17.04;100766.09;5114297;28;19916;-74
2022/05/06 06:10:48;;;;;;;;;;;;;;;26.95;17.18;100763.34;5114109;28;19924;-74
2022/05/06 06:13:15;;;;;;;;;;;;;;;26.94;17.09;100762.56;5113985;28;19916;-74
2022/05/06 06:15:41;;;;;;;;;;;;;;;26.93;17.20;100768.31;5114073;28;19931;-73
2022/05/06 06:18:06;;;;;;;;;;;;;;;26.90;17.22;100766.97;5095434;28;19926;-73
2022/05/06 06:20:31;;;;;;;;;;;;;;;26.91;17.44;100765.88;5114520;28;19964;-74
2022/05/06 06:22:57;;;;;;;;;;;;;;;26.90;17.46;100771.63;5114053;28;20277;-76
2022/05/06 06:25:22;;;;;;;;;;;;;;;26.90;17.31;100768.88;5114360;28;20281;-78
2022/05/06 06:27:48;;;;;;;;;;;;;;;26.91;17.22;100773.28;5113989;28;19916;-75
2022/05/06 06:30:13;;;;;;;;;;;;;;;26.89;17.35;100767.25;5114112;28;20061;-74
2022/05/06 06:32:38;;;;;;;;;;;;;;;26.86;17.49;100770.59;5113968;28;19962;-74
2022/05/06 06:35:04;;;;;;;;;;;;;;;26.85;17.48;100766.19;5114614;28;20406;-74
2022/05/06 06:37:31;;;;;;;;;;;;;;;26.86;17.22;100765.09;5117866;28;19923;-74
2022/05/06 06:39:56;;;;;;;;;;;;;;;26.85;17.10;100766.19;5117656;28;20056;-74
2022/05/06 06:42:22;;;;;;;;;;;;;;;26.72;17.31;100760.28;5103116;28;19966;-75
2022/05/06 06:44:48;;;;;;;;;;;;;;;26.72;17.45;100757.53;5097484;28;20366;-75
2022/05/06 06:47:14;;;;;;;;;;;;;;;26.77;17.38;100756.69;5096854;28;20007;-76
2022/05/06 06:49:39;;;;;;;;;;;;;;;26.57;17.81;100752.13;5097185;28;19954;-74
2022/05/06 06:52:04;;;;;;;;;;;;;;;26.71;17.34;100760.56;5097124;28;19916;-74
2022/05/06 06:54:29;;;;;;;;;;;;;;;26.69;17.38;100760.84;5096938;28;20362;-74
2022/05/06 06:56:55;;;;;;;;;;;;;;;26.62;17.76;100768.56;5096701;28;19961;-74
2022/05/06 06:59:20;;;;;;;;;;;;;;;26.28;18.28;100774.00;5096640;28;19965;-75
2022/05/06 07:01:45;;;;;;;;;;;;;;;26.36;18.25;100767.91;5096987;28;19916;-75
2022/05/06 07:04:10;;;;;;;;;;;;;;;26.43;18.14;100774.69;5097004;28;20382;-77
2022/05/06 07:12:04;;;;;;;;;;;;;;;26.60;18.08;100766.09;5097037;28;19961;-74
2022/05/06 07:14:29;;;;;;;;;;;;;;;26.55;18.38;100763.38;5097274;28;19916;-74
2022/05/06 07:16:55;;;;;;;;;;;;;;;26.65;18.22;100762.53;5096732;28;20339;-75
2022/05/06 07:19:20;;;;;;;;;;;;;;;26.67;18.37;100763.06;5096807;28;19920;-75
2022/05/06 07:21:45;;;;;;;;;;;;;;;26.69;18.30;100758.09;5096734;28;20027;-73
2022/05/06 07:24:10;;;;;;;;;;;;;;;26.55;18.54;100757.91;5096588;28;20243;-73
2022/05/06 07:26:36;;;;;;;;;;;;;;;26.17;19.22;100759.56;5097082;28;20015;-72
2022/05/06 07:29:01;;;;;;;;;;;;;;;26.14;19.24;100757.38;5096706;28;19993;-73
2022/05/06 07:31:26;;;;;;;;;;;;;;;26.19;19.19;100755.41;5097256;28;19923;-74
2022/05/06 07:33:52;;;;;;;;;;;;;;;26.22;18.92;100754.03;5096787;28;20346;-74
2022/05/06 07:36:17;;;;;;;;;;;;;;;26.64;18.52;100754.59;5096786;28;19916;-75
2022/05/06 07:38:42;;;;;;;;;;;;;;;26.74;18.59;100755.31;5079395;28;19985;-74
2022/05/06 07:41:07;;;;;;;;;;;;;;;26.76;18.27;100758.56;5100385;28;19916;-73
2022/05/06 07:43:33;;;;;;;;;;;;;;;26.72;18.29;100760.28;5117585;28;19938;-74
2022/05/06 07:45:58;;;;;;;;;;;;;;;26.77;18.21;100753.94;5117606;28;19942;-75
2022/05/06 07:48:23;;;;;;;;;;;;;;;26.71;18.42;100755.88;5122282;28;20384;-74
2022/05/06 07:50:49;;;;;;;;;;;;;;;26.71;18.44;100755.88;5132123;28;19942;-75
2022/05/06 07:53:15;;;;;;;;;;;;;;;26.74;18.40;100755.31;5131206;28;19916;-74
2022/05/06 07:55:40;;;;;;;;;;;;;;;26.72;18.23;100752.03;5135159;28;19938;-75
2022/05/06 07:58:05;;;;;;;;;;;;;;;26.79;18.35;100752.53;5133776;28;19973;-75
2022/05/06 08:00:34;;;;;;;;;;;;;;;26.86;18.34;100760.44;5131166;28;19975;-74
2022/05/06 08:05:47;;;;;;;;;;;;;;;26.81;18.17;100743.22;5134153;28;19923;-74
2022/05/06 08:08:13;;;;;;;;;;;;;;;26.79;17.97;100741.56;5119363;28;19920;-75
2022/05/06 08:10:38;;;;;;;;;;;;;;;26.84;18.31;100737.97;5135473;28;19942;-77
2022/05/06 08:13:03;;;;;;;;;;;;;;;26.81;18.04;100735.78;5135570;28;19916;-75
2022/05/06 08:15:29;;;;;;;;;;;;;;;26.82;18.42;100728.38;5136845;28;19915;-75
2022/05/06 08:17:54;;;;;;;;;;;;;;;26.87;18.13;100731.06;5135276;28;19911;-75
2022/05/06 08:20:19;;;;;;;;;;;;;;;26.79;18.38;100738.81;5134970;28;19946;-76
2022/05/06 08:22:45;;;;;;;;;;;;;;;26.75;18.59;100737.78;5135443;28;19923;-75
2022/05/06 08:25:10;;;;;;;;;;;;;;;26.85;18.35;100741.50;5135227;28;19920;-75
2022/05/06 08:27:39;;;;;;;;;;;;;;;26.81;18.58;100737.72;5134917;28;19915;-76
2022/05/06 08:30:05;;;;;;;;;;;;;;;26.82;18.53;100740.19;5128471;28;19938;-75
2022/05/06 08:32:30;;;;;;;;;;;;;;;26.72;18.70;100740.28;5124997;28;20378;-74
2022/05/06 08:34:55;;;;;;;;;;;;;;;26.86;18.91;100726.72;5123988;28;19923;-75
2022/05/06 08:37:21;;;;;;;;;;;;;;;26.88;18.82;100728.03;5128445;28;19920;-76
2022/05/06 08:39:47;;;;;;;;;;;;;;;26.85;18.84;100725.06;5126001;28;20350;-75
2022/05/06 08:42:13;;;;;;;;;;;;;;;26.97;18.74;100726.31;5116225;28;19916;-75
2022/05/06 08:52:50;;;;;;;;;;;;;;;26.91;19.19;100732.16;5099896;28;19968;-73
2022/05/06 08:55:15;;;;;;;;;;;;;;;27.05;19.05;100722.13;5115954;28;19919;-73
2022/05/06 08:57:42;;;;;;;;;;;;;;;27.02;18.99;100730.13;5114756;28;19920;-74
2022/05/06 09:00:07;;;;;;;;;;;;;;;26.95;19.13;100719.47;5096873;28;20032;-74
2022/05/06 09:02:32;;;;;;;;;;;;;;;27.01;19.13;100720.25;5116174;28;19923;-74
2022/05/06 09:04:58;;;;;;;;;;;;;;;27.06;19.03;100715.53;5114910;28;20345;-73
2022/05/06 09:07:25;;;;;;;;;;;;;;;26.93;19.45;100719.75;5115014;28;20086;-74
2022/05/06 09:10:09;;;;;;;;;;;;;;;27.04;19.18;100714.19;5115078;28;20376;-75
2022/05/06 09:12:44;;;;;;;;;;;;;;;27.07;19.25;100714.41;5115205;28;19916;-73
2022/05/06 09:18:23;;;;;;;;;;;;;;;26.77;19.88;100710.88;5032222;28;20272;-73
2022/05/06 09:20:50;;;;;;;;;;;;;;;26.98;19.58;100706.00;5032201;28;19924;-73
2022/05/06 09:23:33;;;;;;;;;;;;;;;27.11;19.40;100706.41;5032117;28;20011;-73
2022/05/06 09:25:59;;;;;;;;;;;;;;;27.22;19.40;100710.69;5014417;28;19921;-72
2022/05/06 09:28:33;;;;;;;;;;;;;;;27.06;19.65;100711.94;5012478;28;19966;-73
2022/05/06 09:31:02;;;;;;;;;;;;;;;26.85;20.04;100712.16;5012696;28;19928;-73
2022/05/06 09:33:30;;;;;;;;;;;;;;;27.03;19.64;100701.56;5012552;28;19918;-74
2022/05/06 09:35:56;;;;;;;;;;;;;;;27.04;19.50;100708.69;5012343;28;19918;-73
2022/05/06 09:38:21;;;;;;;;;;;;;;;26.85;20.12;100712.16;5012291;28;19917;-73
2022/05/06 09:40:47;;;;;;;;;;;;;;;26.71;20.43;100706.53;5012450;28;19921;-74
2022/05/06 09:43:15;;;;;;;;;;;;;;;26.77;20.29;100710.88;5012963;28;20023;-74
2022/05/06 09:45:43;;;;;;;;;;;;;;;26.95;20.32;100711.25;5012804;28;20015;-75
2022/05/06 09:48:09;;;;;;;;;;;;;;;27.00;20.05;100697.50;5020810;28;19917;-74
2022/05/06 09:50:35;;;;;;;;;;;;;;;26.58;20.57;100718.16;5094178;28;20373;-76
2022/05/06 09:53:00;;;;;;;;;;;;;;;27.06;20.16;100717.44;5094103;28;19923;-75
2022/05/06 09:55:26;;;;;;;;;;;;;;;27.11;19.80;100715.47;5093758;28;20321;-76
2022/05/06 09:57:51;;;;;;;;;;;;;;;27.08;19.98;100716.06;5093431;28;19916;-74
2022/05/06 10:00:17;;;;;;;;;;;;;;;27.16;20.51;100715.44;5075636;28;19916;-73
2022/05/06 10:02:42;;;;;;;;;;;;;;;27.31;20.26;100710.91;5093569;28;20014;-75
2022/05/06 10:05:08;;;;;;;;;;;;;;;27.17;20.64;100714.31;5093807;28;19917;-74
2022/05/06 10:07:33;;;;;;;;;;;;;;;27.12;20.69;100717.09;5093847;28;19920;-74
2022/05/06 10:10:07;;;;;;;;;;;;;;;27.11;20.25;100710.00;5092510;28;19920;-74
2022/05/06 10:12:37;;;;;;;;;;;;;;;27.23;20.04;100706.00;5075410;28;20382;-75
2022/05/06 10:15:05;;;;;;;;;;;;;;;27.21;19.93;100708.25;5093335;28;19920;-74
2022/05/06 10:17:51;;;;;;;;;;;;;;;27.21;19.85;100708.25;5093659;28;20385;-76
2022/05/06 10:20:35;;;;;;;;;;;;;;;27.25;19.98;100720.25;5031040;28;19995;-74
2022/05/06 10:23:01;;;;;;;;;;;;;;;27.29;19.84;100716.69;5031627;28;19917;-74
2022/05/06 10:25:44;;;;;;;;;;;;;;;27.19;20.23;100716.75;5030942;28;19921;-74
2022/05/06 10:34:14;;;;;;;;;;;;;;;27.34;19.74;100710.31;5031386;28;19949;-74
2022/05/06 10:36:53;;;;;;;;;;;;;;;27.20;19.77;100706.59;5050833;28;19923;-74
2022/05/06 10:39:21;;;;;;;;;;;;;;;27.38;19.50;100716.84;5051172;28;19916;-74
2022/05/06 10:42:06;;;;;;;;;;;;;;;27.29;19.74;100707.63;5051018;28;19917;-74
2022/05/06 10:44:33;;;;;;;;;;;;;;;27.19;19.83;100716.75;4991776;28;19977;-74
2022/05/06 10:46:58;;;;;;;;;;;;;;;27.29;19.78;100716.69;4991908;28;20443;-74
2022/05/06 10:49:35;;;;;;;;;;;;;;;27.16;19.98;100707.19;4991776;28;19918;-74
2022/05/06 10:52:16;;;;;;;;;;;;;;;27.12;20.07;100711.63;4991707;28;19953;-75
2022/05/06 10:54:47;;;;;;;;;;;;;;;27.10;20.12;100708.34;4991358;28;19922;-74
2022/05/06 10:57:13;;;;;;;;;;;;;;;27.20;20.10;100707.44;5000792;28;19917;-75
2022/05/06 10:59:47;;;;;;;;;;;;;;;27.24;19.92;100705.72;5012326;28;19928;-74
2022/05/06 11:02:13;;;;;;;;;;;;;;;27.17;20.12;100711.56;5012371;28;19918;-75
2022/05/06 11:04:38;;;;;;;;;;;;;;;27.14;20.11;100709.38;5012394;28;20387;-74
2022/05/06 11:07:10;;;;;;;;;;;;;;;27.13;20.16;100704.19;5012028;28;19918;-74
2022/05/06 11:09:35;;;;;;;;;;;;;;;27.11;20.19;100704.50;5012389;28;20442;-73
2022/05/06 11:12:00;;;;;;;;;;;;;;;27.15;20.00;100705.56;5011967;28;20004;-73
2022/05/06 11:14:26;;;;;;;;;;;;;;;27.11;20.02;100709.16;4994781;28;20319;-73
2022/05/06 11:16:51;;;;;;;;;;;;;;;27.15;20.07;100702.81;5011455;28;19993;-75
2022/05/06 11:19:32;;;;;;;;;;;;;;;27.14;20.21;100698.41;5011291;28;19918;-75
2022/05/06 11:22:10;;;;;;;;;;;;;;;27.00;20.23;100708.47;5066086;28;19931;-73
2022/05/06 11:24:35;;;;;;;;;;;;;;;27.10;20.24;100710.28;5103333;28;20387;-74
2022/05/06 11:27:16;;;;;;;;;;;;;;;27.01;20.26;100715.59;5117084;28;19975;-75
2022/05/06 11:29:57;;;;;;;;;;;;;;;26.98;20.31;100710.69;5117823;28;20338;-75
2022/05/06 11:32:26;;;;;;;;;;;;;;;27.03;20.47;100724.34;5116779;28;19920;-75
2022/05/06 11:35:10;;;;;;;;;;;;;;;27.08;20.12;100710.56;5117220;28;19926;-75
2022/05/06 11:37:35;;;;;;;;;;;;;;;27.11;20.13;100703.66;5117631;28;20016;-75
2022/05/06 11:40:32;;;;;;;;;;;;;;;27.06;20.09;100710.06;5118796;28;19920;-74
2022/05/06 11:42:58;;;;;;;;;;;;;;;27.09;20.22;100709.44;5105905;28;19916;-74
2022/05/06 11:48:08;;;;;;;;;;;;;;;27.11;20.26;100715.47;5098919;28;19923;-74
2022/05/06 11:50:33;;;;;;;;;;;;;;;26.90;20.52;100708.56;5098705;28;19923;-75
2022/05/06 11:52:59;;;;;;;;;;;;;;;27.06;20.66;100706.47;5081732;28;20310;-75
2022/05/06 11:55:24;;;;;;;;;;;;;;;27.10;20.28;100708.34;5099542;28;19916;-76
2022/05/06 11:57:50;;;;;;;;;;;;;;;27.10;20.36;100711.09;5081868;28;19936;-75
2022/05/06 12:00:15;;;;;;;;;;;;;;;27.07;20.39;100710.84;5098970;28;19920;-74
2022/05/06 12:02:48;;;;;;;;;;;;;;;27.08;20.41;100710.56;5099237;28;20401;-75
2022/05/06 12:05:13;;;;;;;;;;;;;;;27.09;20.49;100701.22;5098897;28;20374;-74
2022/05/06 12:07:48;;;;;;;;;;;;;;;27.03;20.61;100707.03;5098608;28;19923;-73
2022/05/06 12:10:42;;;;;;;;;;;;;;;27.28;20.17;100712.28;5098328;28;19947;-73
2022/05/06 12:13:08;;;;;;;;;;;;;;;27.13;20.20;100705.03;5016125;28;19924;-75
2022/05/06 12:15:37;;;;;;;;;;;;;;;27.18;20.10;100695.91;5016439;28;19918;-74
2022/05/06 12:18:02;;;;;;;;;;;;;;;27.10;20.36;100702.88;5015642;28;19924;-73
2022/05/06 12:20:31;;;;;;;;;;;;;;;27.16;20.12;100707.19;5016216;28;19917;-73
2022/05/06 12:22:59;;;;;;;;;;;;;;;27.14;20.26;100692.13;5015983;28;19964;-72
2022/05/06 12:25:25;;;;;;;;;;;;;;;27.13;20.50;100702.28;4987611;28;19926;-72
2022/05/06 12:28:07;;;;;;;;;;;;;;;27.09;20.57;100695.72;4996913;28;19918;-72
2022/05/06 12:30:32;;;;;;;;;;;;;;;27.12;20.43;100688.84;4980709;28;20467;-74
2022/05/06 12:33:02;;;;;;;;;;;;;;;27.07;20.60;100697.94;4995549;28;20029;-75
2022/05/06 12:35:27;;;;;;;;;;;;;;;27.11;20.37;100684.47;4996558;28;19918;-79
2022/05/06 12:37:56;;;;;;;;;;;;;;;27.15;20.57;100689.09;4996340;28;20356;-74
2022/05/06 12:40:27;;;;;;;;;;;;;;;27.19;20.38;100696.75;4996073;28;19921;-75
2022/05/06 12:43:04;;;;;;;;;;;;;;;27.19;20.57;100697.56;5006515;28;19925;-73
2022/05/06 12:45:30;;;;;;;;;;;;;;;27.20;20.45;100692.88;5013958;28;19957;-74
2022/05/06 12:50:39;;;;;;;;;;;;;;;27.26;20.53;100686.22;5094205;28;19970;-76
2022/05/06 12:53:05;;;;;;;;;;;;;;;27.25;20.36;100684.59;5095425;28;20338;-75
2022/05/06 12:55:30;;;;;;;;;;;;;;;27.23;20.33;100689.56;5095785;28;20011;-74
2022/05/06 12:57:55;;;;;;;;;;;;;;;27.20;20.44;100690.13;5095260;28;20412;-74
2022/05/06 13:00:21;;;;;;;;;;;;;;;27.16;20.26;100685.25;5094932;28;19920;-75
2022/05/06 13:02:46;;;;;;;;;;;;;;;27.19;20.18;100688.50;5094756;28;19927;-74
2022/05/06 13:05:11;;;;;;;;;;;;;;;27.15;20.12;100693.78;5094693;28;19923;-74
2022/05/06 13:07:37;;;;;;;;;;;;;;;27.21;20.11;100686.28;5095130;28;19927;-75
2022/05/06 13:10:02;;;;;;;;;;;;;;;27.20;20.25;100680.00;5095027;28;20013;-74
2022/05/06 13:12:27;;;;;;;;;;;;;;;27.16;20.20;100681.66;5094590;28;20392;-74
2022/05/06 13:14:53;;;;;;;;;;;;;;;27.15;20.32;100680.88;5094895;28;19961;-74
2022/05/06 13:17:18;;;;;;;;;;;;;;;27.12;20.04;100681.44;5094737;28;20015;-75
2022/05/06 13:19:43;;;;;;;;;;;;;;;27.07;20.26;100665.03;5094935;28;20361;-75
2022/05/06 13:22:09;;;;;;;;;;;;;;;27.01;20.26;100670.88;5094659;28;19969;-75